Time;durP1;ratioP1;P1;durP2;ratioP2;P2;SDS_P1;SDS_P2;PMS_P1;PMS_P2;Temp;Humidity;BMP_temperature;BMP_pressure;BME280_temperature;BME280_humidity;BME280_pressure;Samples;Min_cycle;Max_cycle;Signal;HPM_P1;HPM_P2
2023/10/13 00:02:04;;;;;;;112.15;44.90;;;14.50;97.40;;;;;;5017349;28;20091;-83
2023/10/13 00:04:37;;;;;;;117.45;47.67;;;14.50;97.80;;;;;;5001857;28;20397;-82
2023/10/13 00:07:08;;;;;;;108.78;44.97;;;14.60;97.90;;;;;;5016140;28;20103;-82
2023/10/13 00:09:37;;;;;;;109.82;46.75;;;14.70;98.20;;;;;;5017331;28;20042;-84
2023/10/13 00:12:13;;;;;;;123.80;47.38;;;14.70;97.70;;;;;;4985567;28;20034;-82
2023/10/13 00:14:41;;;;;;;122.03;49.03;;;14.80;98.30;;;;;;5017418;28;20037;-83
2023/10/13 00:17:07;;;;;;;127.25;48.85;;;14.90;98.40;;;;;;5004288;28;20038;-83
2023/10/13 00:19:44;;;;;;;128.63;48.30;;;14.90;98.70;;;;;;5000706;28;20041;-84
2023/10/13 00:22:10;;;;;;;127.60;48.20;;;14.90;98.40;;;;;;5020385;28;20045;-81
2023/10/13 00:24:42;;;;;;;111.70;44.85;;;15.00;98.60;;;;;;5035719;28;20041;-84
2023/10/13 00:27:36;;;;;;;134.23;48.50;;;15.00;98.70;;;;;;5079440;28;20045;-84
2023/10/13 00:30:22;;;;;;;116.65;46.22;;;15.00;98.60;;;;;;5046389;28;20025;-84
2023/10/13 00:32:53;;;;;;;102.53;43.75;;;15.00;98.70;;;;;;5046323;28;20040;-86
2023/10/13 00:35:25;;;;;;;117.70;46.25;;;15.10;98.50;;;;;;5046218;28;20041;-82
2023/10/13 00:37:55;;;;;;;111.10;45.78;;;15.10;98.40;;;;;;5042105;28;20048;-87
2023/10/13 00:45:57;;;;;;;107.70;44.05;;;15.30;99.10;;;;;;5056017;28;20098;-86
2023/10/13 00:48:32;;;;;;;100.68;41.55;;;15.30;98.50;;;;;;5019960;28;20079;-86
2023/10/13 00:51:02;;;;;;;95.80;39.72;;;15.40;98.60;;;;;;5009898;28;20068;-84
2023/10/13 00:53:33;;;;;;;84.97;40.45;;;15.40;98.90;;;;;;5036345;28;20037;-83
2023/10/13 00:56:06;;;;;;;80.20;38.38;;;15.50;99.20;;;;;;5036224;28;20051;-84
2023/10/13 00:58:38;;;;;;;78.88;36.90;;;15.50;99.00;;;;;;5019694;28;20097;-84
2023/10/13 01:01:22;;;;;;;60.17;31.35;;;15.60;98.60;;;;;;5019617;28;20500;-85
2023/10/13 01:04:04;;;;;;;65.82;35.47;;;15.60;99.10;;;;;;5019788;28;20111;-84
2023/10/13 01:06:31;;;;;;;62.92;30.80;;;15.80;99.40;;;;;;5034698;28;20151;-87
2023/10/13 01:09:12;;;;;;;51.55;28.75;;;15.80;99.10;;;;;;4996767;28;20128;-86
2023/10/13 01:11:43;;;;;;;45.22;26.20;;;15.80;99.10;;;;;;4996723;28;20045;-85
2023/10/13 01:14:15;;;;;;;43.95;25.30;;;16.00;99.60;;;;;;4980767;28;20575;-84
2023/10/13 01:16:43;;;;;;;44.17;23.55;;;16.00;99.20;;;;;;4980823;28;20046;-85
2023/10/13 01:19:24;;;;;;;35.90;19.85;;;16.00;99.20;;;;;;4996673;28;20037;-85
2023/10/13 01:21:54;;;;;;;34.17;20.17;;;16.00;98.80;;;;;;4965570;28;20120;-84
2023/10/13 01:24:24;;;;;;;32.67;19.20;;;16.00;98.70;;;;;;5027955;28;20128;-83
2023/10/13 01:26:52;;;;;;;29.52;18.27;;;16.00;98.80;;;;;;5019235;28;20044;-86
2023/10/13 01:29:19;;;;;;;32.10;18.15;;;16.10;98.60;;;;;;5036292;28;20059;-85
2023/10/13 01:31:46;;;;;;;26.75;16.00;;;16.00;98.80;;;;;;5019129;28;20079;-83
2023/10/13 01:34:21;;;;;;;27.63;17.00;;;16.10;98.70;;;;;;5019356;28;20041;-83
2023/10/13 01:36:55;;;;;;;20.75;13.75;;;16.00;98.70;;;;;;5035450;28;20559;-84
2023/10/13 01:39:28;;;;;;;25.40;13.90;;;16.10;98.80;;;;;;5017544;28;20124;-84
2023/10/13 01:41:57;;;;;;;24.52;12.25;;;16.10;98.60;;;;;;5019065;28;20048;-82
2023/10/13 01:44:33;;;;;;;19.98;12.63;;;16.10;98.60;;;;;;5018848;28;20049;-83
2023/10/13 01:47:06;;;;;;;18.55;11.82;;;16.10;98.40;;;;;;5019194;28;20072;-81
2023/10/13 01:49:41;;;;;;;16.20;11.30;;;16.10;98.30;;;;;;5019050;28;20047;-84
2023/10/13 01:52:08;;;;;;;16.90;10.27;;;16.10;98.30;;;;;;5027832;28;20094;-85
2023/10/13 01:54:34;;;;;;;13.38;10.45;;;16.10;98.20;;;;;;5021469;28;20037;-85
2023/10/13 01:56:59;;;;;;;15.93;10.18;;;16.10;98.30;;;;;;5038355;28;20036;-83
2023/10/13 01:59:26;;;;;;;18.40;10.98;;;16.10;98.20;;;;;;5022681;28;20037;-85
2023/10/13 02:01:56;;;;;;;17.00;10.73;;;16.10;98.30;;;;;;5020606;28;20041;-85
2023/10/13 02:04:22;;;;;;;16.58;11.27;;;16.10;98.30;;;;;;5020194;28;20033;-84
2023/10/13 02:06:47;;;;;;;16.40;12.30;;;16.10;98.30;;;;;;5019681;28;20052;-83
2023/10/13 02:09:13;;;;;;;21.13;12.05;;;16.10;98.20;;;;;;5018510;28;20048;-81
2023/10/13 02:11:47;;;;;;;22.75;13.70;;;16.20;98.30;;;;;;5019791;28;20428;-86
2023/10/13 02:14:16;;;;;;;23.25;15.15;;;16.10;98.20;;;;;;5036671;28;20049;-89
2023/10/13 02:16:42;;;;;;;22.65;13.40;;;16.20;98.20;;;;;;5020536;28;20400;-83
2023/10/13 02:19:08;;;;;;;25.92;16.48;;;16.20;98.10;;;;;;5013936;28;20505;-86
2023/10/13 02:21:45;;;;;;;25.13;16.25;;;16.20;98.00;;;;;;5016428;28;20068;-83
2023/10/13 02:24:17;;;;;;;27.33;18.70;;;16.20;98.30;;;;;;5016500;28;20401;-85
2023/10/13 02:26:44;;;;;;;37.30;21.33;;;16.20;98.30;;;;;;4999637;28;20046;-82
2023/10/13 02:29:12;;;;;;;35.78;19.83;;;16.20;98.20;;;;;;4998815;28;20080;-85
2023/10/13 02:31:42;;;;;;;33.42;20.75;;;16.20;98.30;;;;;;4998832;28;20048;-83
2023/10/13 02:34:08;;;;;;;39.83;20.58;;;16.20;98.20;;;;;;5015330;28;20083;-85
2023/10/13 02:36:54;;;;;;;39.20;22.08;;;16.20;98.70;;;;;;5009621;28;20037;-85
2023/10/13 02:39:26;;;;;;;39.30;22.63;;;16.20;98.50;;;;;;5004507;28;20052;-86
2023/10/13 02:41:55;;;;;;;41.05;23.42;;;16.20;98.30;;;;;;5003167;28;20068;-86
2023/10/13 02:44:28;;;;;;;42.47;25.35;;;16.20;98.40;;;;;;5002339;28;20036;-85
2023/10/13 02:46:58;;;;;;;45.67;25.20;;;16.20;98.40;;;;;;5003293;28;20047;-85
2023/10/13 02:49:31;;;;;;;49.88;27.30;;;16.20;98.50;;;;;;5002548;28;20502;-86
2023/10/13 02:51:59;;;;;;;50.20;25.73;;;16.30;98.60;;;;;;5010619;28;20037;-84
2023/10/13 02:54:31;;;;;;;53.13;27.45;;;16.30;98.50;;;;;;5002588;28;20044;-85
2023/10/13 02:56:57;;;;;;;54.22;30.10;;;16.30;98.50;;;;;;5018465;28;20048;-87
2023/10/13 03:04:48;;;;;;;58.83;30.52;;;16.30;98.60;;;;;;5019377;28;20409;-85
2023/10/13 03:07:23;;;;;;;55.55;29.45;;;16.30;98.80;;;;;;5034801;28;20052;-86
2023/10/13 03:09:50;;;;;;;42.50;26.58;;;16.40;98.60;;;;;;5032969;28;20037;-87
2023/10/13 03:12:19;;;;;;;54.20;28.55;;;16.30;98.70;;;;;;5020244;28;20120;-84
2023/10/13 03:14:48;;;;;;;56.20;31.15;;;16.30;98.70;;;;;;5005238;28;20037;-86
2023/10/13 03:17:17;;;;;;;60.70;30.83;;;16.30;98.60;;;;;;5021326;28;20033;-86
2023/10/13 03:19:49;;;;;;;56.15;30.23;;;16.30;98.60;;;;;;5005762;28;20037;-87
2023/10/13 03:22:16;;;;;;;60.67;29.60;;;16.40;98.70;;;;;;5021612;28;20049;-87
2023/10/13 03:24:46;;;;;;;54.47;29.38;;;16.30;98.70;;;;;;5009746;28;20598;-86
2023/10/13 03:27:17;;;;;;;51.28;30.55;;;16.30;98.90;;;;;;4984580;28;20042;-86
2023/10/13 03:29:44;;;;;;;60.97;30.15;;;16.30;98.90;;;;;;5018861;28;20045;-85
2023/10/13 03:32:15;;;;;;;49.40;29.15;;;16.30;98.70;;;;;;4988679;28;20379;-86
2023/10/13 03:37:39;;;;;;;48.03;27.33;;;16.30;98.90;;;;;;5003648;28;20041;-87
2023/10/13 03:43:52;;;;;;;43.47;25.00;;;16.30;98.90;;;;;;4998136;28;20049;-86
2023/10/13 03:45:52;;;;;;;44.88;25.42;;;16.20;98.80;;;;;;5009030;28;20049;-84
2023/10/13 03:51:06;;;;;;;35.00;22.08;;;16.20;99.10;;;;;;5017581;28;20560;-86
2023/10/13 03:53:50;;;;;;;39.65;23.83;;;16.20;99.00;;;;;;4993653;28;20072;-88
2023/10/13 03:56:28;;;;;;;30.77;20.55;;;16.20;99.10;;;;;;5001161;28;20532;-85
2023/10/13 03:59:03;;;;;;;29.25;18.38;;;16.20;99.10;;;;;;5001125;28;20069;-85
2023/10/13 04:01:32;;;;;;;29.02;18.90;;;16.20;98.90;;;;;;5001227;28;20433;-86
2023/10/13 04:04:11;;;;;;;30.77;19.13;;;16.20;99.20;;;;;;4969791;28;20038;-86
2023/10/13 04:17:22;;;;;;;24.67;15.93;;;16.30;99.30;;;;;;5022589;28;20056;-88
2023/10/13 04:25:35;;;;;;;27.33;17.73;;;16.30;99.20;;;;;;5035029;28;20508;-88
2023/10/13 04:36:16;;;;;;;38.92;23.13;;;16.40;99.30;;;;;;5043257;28;20485;-86
2023/10/13 04:39:00;;;;;;;35.78;23.08;;;16.30;99.30;;;;;;5020738;28;20045;-86
2023/10/13 04:41:57;;;;;;;33.20;21.35;;;16.40;99.40;;;;;;5020151;28;20037;-86
2023/10/13 04:54:49;;;;;;;34.35;20.98;;;16.30;99.10;;;;;;5036486;28;20405;-85
2023/10/13 05:05:45;;;;;;;29.60;17.83;;;16.30;99.20;;;;;;5042153;28;20048;-86
2023/10/13 06:29:36;;;;;;;10.82;6.28;;;16.20;98.50;;;;;;5012618;28;20046;-88
2023/10/13 06:32:09;;;;;;;10.05;7.18;;;16.30;98.60;;;;;;4979961;28;20046;-85
2023/10/13 06:34:47;;;;;;;8.90;6.82;;;16.30;98.40;;;;;;4979739;28;20037;-89
2023/10/13 06:37:43;;;;;;;11.05;7.40;;;16.30;98.60;;;;;;4996671;28;20057;-86
2023/10/13 06:43:16;;;;;;;11.25;6.18;;;16.40;98.60;;;;;;4998536;28;20041;-89
2023/10/13 06:46:07;;;;;;;12.57;6.38;;;16.40;98.40;;;;;;4996120;28;20130;-86
2023/10/13 06:48:34;;;;;;;8.30;4.72;;;16.50;98.30;;;;;;4999201;28;20092;-90
2023/10/13 06:51:17;;;;;;;11.70;5.13;;;16.50;98.20;;;;;;4999738;28;20084;-90
2023/10/13 06:53:54;;;;;;;12.13;4.68;;;16.50;98.10;;;;;;4999658;28;20461;-85
2023/10/13 06:56:26;;;;;;;13.40;5.80;;;16.50;98.00;;;;;;4999379;28;20088;-88
2023/10/13 06:58:59;;;;;;;11.13;5.63;;;16.50;97.90;;;;;;4999138;28;20049;-86
2023/10/13 07:01:26;;;;;;;10.00;5.68;;;16.50;97.90;;;;;;4999072;28;20034;-84
2023/10/13 07:04:00;;;;;;;18.52;5.57;;;16.50;97.70;;;;;;4983012;28;20042;-86
2023/10/13 07:06:27;;;;;;;15.13;5.53;;;16.50;97.60;;;;;;4999394;28;20060;-88
2023/10/13 07:08:56;;;;;;;12.90;5.72;;;16.50;97.70;;;;;;4982946;28;20128;-89
2023/10/13 07:11:37;;;;;;;19.75;7.00;;;16.50;97.70;;;;;;4983347;28;20190;-89
2023/10/13 07:14:10;;;;;;;11.07;5.55;;;16.50;97.70;;;;;;4983287;28;20042;-90
2023/10/13 07:16:46;;;;;;;15.70;5.88;;;16.50;97.50;;;;;;4999136;28;20080;-89
2023/10/13 07:19:17;;;;;;;12.38;5.57;;;16.50;97.50;;;;;;4999468;28;20437;-89
2023/10/13 07:21:49;;;;;;;15.40;6.25;;;16.50;97.40;;;;;;4983946;28;20034;-89
2023/10/13 07:24:33;;;;;;;14.90;6.85;;;16.40;97.00;;;;;;5000694;28;20058;-87
2023/10/13 07:27:05;;;;;;;19.53;6.90;;;16.50;97.10;;;;;;4970026;28;20073;-89
2023/10/13 07:29:35;;;;;;;18.58;6.88;;;16.40;97.10;;;;;;5000651;28;20056;-87
2023/10/13 07:32:12;;;;;;;13.15;6.90;;;16.40;97.00;;;;;;5000055;28;20544;-91
2023/10/13 07:35:38;;;;;;;22.67;8.25;;;16.40;97.20;;;;;;4984538;28;20046;-88
2023/10/13 07:38:07;;;;;;;15.32;6.43;;;16.30;96.90;;;;;;4989695;28;20585;-87
2023/10/13 07:43:05;;;;;;;20.80;7.22;;;16.30;96.80;;;;;;4999266;28;20050;-89
2023/10/13 07:45:37;;;;;;;17.88;7.93;;;16.30;96.70;;;;;;4986166;28;20577;-88
2023/10/13 07:48:19;;;;;;;18.08;8.70;;;16.20;96.80;;;;;;4988460;28;20080;-88
2023/10/13 07:50:45;;;;;;;21.63;8.27;;;16.30;96.80;;;;;;4995418;28;20042;-87
2023/10/13 07:53:23;;;;;;;17.23;7.28;;;16.20;96.90;;;;;;4991830;28;20038;-88
2023/10/13 07:55:55;;;;;;;17.00;7.20;;;16.20;96.90;;;;;;5004257;28;20045;-89
2023/10/13 07:58:27;;;;;;;23.67;7.55;;;16.20;97.00;;;;;;4985813;28;20041;-88
2023/10/13 08:01:06;;;;;;;18.63;7.63;;;16.20;97.00;;;;;;4970788;28;20046;-87
2023/10/13 08:03:44;;;;;;;17.58;7.95;;;16.20;97.20;;;;;;4985858;28;20038;-91
2023/10/13 08:08:40;;;;;;;16.60;7.63;;;16.30;97.40;;;;;;5000964;28;20046;-90
2023/10/13 08:11:44;;;;;;;18.55;7.88;;;16.30;97.70;;;;;;4985163;28;20129;-89
2023/10/13 08:14:11;;;;;;;17.77;7.28;;;16.40;97.70;;;;;;4997731;28;20041;-88
2023/10/13 08:16:52;;;;;;;25.40;8.27;;;16.40;97.70;;;;;;4984725;28;20498;-89
2023/10/13 08:19:39;;;;;;;19.52;8.18;;;16.40;97.90;;;;;;5000309;28;20042;-91
2023/10/13 08:22:23;;;;;;;17.25;7.53;;;16.40;98.10;;;;;;4982372;28;20034;-89
2023/10/13 08:27:34;;;;;;;18.67;7.30;;;16.50;97.90;;;;;;5018072;28;20053;-90
2023/10/13 08:33:16;;;;;;;16.75;6.97;;;16.50;97.80;;;;;;5034138;28;20481;-90
2023/10/13 08:35:54;;;;;;;14.98;6.90;;;16.50;97.70;;;;;;5017897;28;20390;-91
2023/10/13 08:38:28;;;;;;;13.40;6.25;;;16.50;97.50;;;;;;5000935;28;20049;-89
2023/10/13 08:43:53;;;;;;;15.00;7.22;;;16.60;97.30;;;;;;5034087;28;20045;-88
2023/10/13 08:46:29;;;;;;;16.10;6.80;;;16.70;97.20;;;;;;5017892;28;20041;-90
2023/10/13 08:49:15;;;;;;;10.75;7.18;;;16.70;97.10;;;;;;5017617;28;20505;-89
2023/10/13 08:51:46;;;;;;;13.23;6.57;;;16.80;97.00;;;;;;5017377;28;20095;-89
2023/10/13 08:54:33;;;;;;;12.40;7.47;;;16.90;96.80;;;;;;5000896;28;20041;-88
2023/10/13 08:57:06;;;;;;;12.77;7.72;;;16.90;96.90;;;;;;5017592;28;20448;-90
2023/10/13 08:59:38;;;;;;;15.13;7.90;;;17.00;96.80;;;;;;5001188;28;20033;-88
2023/10/13 09:02:17;;;;;;;17.63;8.82;;;17.10;96.80;;;;;;5000959;28;20033;-87
2023/10/13 09:04:48;;;;;;;15.73;8.57;;;17.20;96.80;;;;;;5017313;28;20160;-88
2023/10/13 09:07:35;;;;;;;15.93;8.40;;;17.20;96.80;;;;;;5017661;28;20038;-88
2023/10/13 09:10:11;;;;;;;16.30;9.00;;;17.30;96.70;;;;;;5016533;28;20045;-88
2023/10/13 09:12:39;;;;;;;14.43;7.90;;;17.40;96.50;;;;;;5000772;28;20041;-89
2023/10/13 09:18:12;;;;;;;17.60;8.63;;;17.70;96.00;;;;;;5033629;28;20053;-89
2023/10/13 09:23:09;;;;;;;18.55;8.20;;;17.80;95.60;;;;;;5033522;28;20041;-88
2023/10/13 09:25:53;;;;;;;15.70;9.18;;;17.90;95.70;;;;;;4998709;28;20084;-89
2023/10/13 09:28:22;;;;;;;17.63;8.10;;;18.00;95.30;;;;;;4997640;28;20052;-88
2023/10/13 09:30:58;;;;;;;13.18;7.47;;;18.00;95.10;;;;;;4980993;28;20088;-85
2023/10/13 09:33:50;;;;;;;21.08;8.00;;;18.10;95.00;;;;;;4976583;28;20045;-87
2023/10/13 09:36:17;;;;;;;13.15;7.40;;;18.20;94.40;;;;;;4979131;28;20406;-84
2023/10/13 09:39:01;;;;;;;12.60;7.15;;;18.20;94.10;;;;;;4980356;28;20057;-85
2023/10/13 09:41:32;;;;;;;14.15;6.43;;;18.30;93.50;;;;;;4980512;28;20107;-85
2023/10/13 09:44:08;;;;;;;13.98;7.70;;;18.40;93.50;;;;;;4988645;28;20097;-85
2023/10/13 09:46:49;;;;;;;13.68;6.95;;;18.50;93.70;;;;;;4985916;28;20045;-89
2023/10/13 09:52:43;;;;;;;15.52;7.22;;;18.50;93.00;;;;;;5004810;28;20095;-85
2023/10/13 09:55:25;;;;;;;10.65;7.03;;;18.60;93.00;;;;;;4982546;28;20049;-85
2023/10/13 09:58:34;;;;;;;13.45;6.40;;;18.70;92.90;;;;;;4997606;28;20038;-86
2023/10/13 10:01:37;;;;;;;10.70;6.50;;;18.70;92.30;;;;;;4993012;28;20057;-87
2023/10/13 10:04:23;;;;;;;11.15;7.32;;;18.60;92.40;;;;;;4979237;28;20112;-86
2023/10/13 10:07:00;;;;;;;14.18;7.07;;;18.60;92.60;;;;;;4988765;28;20042;-89
2023/10/13 10:09:34;;;;;;;19.55;6.50;;;18.60;92.40;;;;;;4975082;28;20045;-85
2023/10/13 10:12:14;;;;;;;16.27;6.55;;;18.60;92.10;;;;;;4987137;28;20054;-85
2023/10/13 10:15:20;;;;;;;10.20;6.30;;;18.70;92.00;;;;;;4990467;28;20046;-87
2023/10/13 10:17:46;;;;;;;16.33;6.95;;;18.70;91.70;;;;;;4993407;28;20050;-89
2023/10/13 10:20:19;;;;;;;15.88;6.82;;;18.80;91.70;;;;;;4985480;28;20034;-86
2023/10/13 10:22:59;;;;;;;11.35;6.30;;;19.00;91.30;;;;;;4970159;28;20060;-87
2023/10/13 10:25:35;;;;;;;14.45;6.32;;;19.10;90.70;;;;;;4993582;28;20054;-87
2023/10/13 10:28:06;;;;;;;15.45;6.10;;;19.20;90.60;;;;;;4978319;28;20050;-85
2023/10/13 10:30:42;;;;;;;11.50;5.50;;;19.20;90.80;;;;;;4982002;28;20124;-87
2023/10/13 10:33:33;;;;;;;17.30;6.50;;;19.20;90.10;;;;;;4981333;28;20524;-89
2023/10/13 10:36:02;;;;;;;15.63;7.63;;;19.20;90.10;;;;;;4993675;28;20608;-86
2023/10/13 10:41:05;;;;;;;12.02;5.85;;;19.20;89.90;;;;;;4978503;28;20077;-86
2023/10/13 10:43:42;;;;;;;15.20;6.22;;;19.20;89.70;;;;;;4973500;28;20069;-87
2023/10/13 10:46:25;;;;;;;15.95;6.43;;;19.30;89.90;;;;;;4986635;28;20050;-89
2023/10/13 10:48:56;;;;;;;14.02;5.93;;;19.30;89.50;;;;;;4993750;28;20042;-86
2023/10/13 10:51:22;;;;;;;18.60;6.47;;;19.40;89.70;;;;;;4978004;28;20038;-88
2023/10/13 10:53:52;;;;;;;14.77;6.25;;;19.50;89.70;;;;;;4976971;28;20068;-87
2023/10/13 10:56:36;;;;;;;17.55;6.60;;;19.60;89.10;;;;;;4993826;28;20487;-83
2023/10/13 10:59:07;;;;;;;12.77;5.97;;;19.70;89.20;;;;;;4993096;28;20050;-85
2023/10/13 11:01:33;;;;;;;13.20;6.20;;;19.50;88.40;;;;;;4977330;28;20317;-85
2023/10/13 11:04:24;;;;;;;16.75;6.85;;;19.60;88.70;;;;;;4978388;28;20052;-87
2023/10/13 11:06:58;;;;;;;18.30;6.88;;;19.50;88.50;;;;;;4999311;28;20048;-85
2023/10/13 11:09:37;;;;;;;17.98;6.60;;;19.50;88.70;;;;;;4997018;28;20102;-86
2023/10/13 11:12:15;;;;;;;16.48;6.85;;;19.40;89.20;;;;;;4980066;28;20038;-86
2023/10/13 11:14:51;;;;;;;15.73;6.40;;;19.40;88.80;;;;;;4996099;28;20080;-89
2023/10/13 11:17:43;;;;;;;13.95;6.15;;;19.30;88.60;;;;;;5015068;28;20561;-88
2023/10/13 11:20:17;;;;;;;14.98;6.68;;;19.40;88.90;;;;;;4978865;28;20053;-92
2023/10/13 11:22:50;;;;;;;15.57;6.93;;;19.40;88.90;;;;;;4998618;28;20494;-85
2023/10/13 11:25:34;;;;;;;18.13;6.40;;;19.40;88.70;;;;;;4999333;28;20494;-88
2023/10/13 11:28:20;;;;;;;12.55;5.80;;;19.30;88.50;;;;;;4967404;28;20084;-88
2023/10/13 11:30:50;;;;;;;15.55;6.78;;;19.40;88.00;;;;;;4952529;28;20125;-86
2023/10/13 11:36:17;;;;;;;16.17;5.72;;;19.30;88.60;;;;;;4985161;28;20049;-89
2023/10/13 11:41:14;;;;;;;15.07;6.78;;;19.30;88.20;;;;;;4966380;28;20034;-89
2023/10/13 11:46:15;;;;;;;16.50;6.72;;;19.00;88.10;;;;;;4981950;28;20406;-88
2023/10/13 11:48:46;;;;;;;14.20;6.22;;;18.80;88.80;;;;;;4995091;28;20561;-87
2023/10/13 11:51:25;;;;;;;21.80;7.15;;;18.80;89.10;;;;;;4979519;28;20049;-86
2023/10/13 11:53:51;;;;;;;13.25;6.68;;;18.60;89.90;;;;;;4988927;28;20080;-88
2023/10/13 11:56:21;;;;;;;18.85;7.13;;;18.60;90.30;;;;;;4964333;28;20074;-86
2023/10/13 11:58:48;;;;;;;16.13;7.25;;;18.60;91.00;;;;;;4955881;28;20077;-87
2023/10/13 12:11:54;;;;;;;15.05;7.28;;;18.60;91.20;;;;;;4983711;28;20565;-86
2023/10/13 12:14:31;;;;;;;13.35;7.13;;;18.70;91.30;;;;;;4982843;28;20111;-85
2023/10/13 12:17:03;;;;;;;16.40;7.63;;;18.70;91.30;;;;;;4981125;28;20374;-86
2023/10/13 12:19:30;;;;;;;21.52;9.07;;;18.60;91.30;;;;;;4982553;28;20042;-89
2023/10/13 12:21:57;;;;;;;18.80;8.65;;;18.50;92.20;;;;;;4971081;28;20418;-87
2023/10/13 12:27:18;;;;;;;15.45;8.40;;;18.50;92.10;;;;;;4983737;28;20132;-87
2023/10/13 12:29:48;;;;;;;17.35;7.15;;;18.50;91.90;;;;;;4967456;28;20037;-84
2023/10/13 12:32:14;;;;;;;17.35;8.40;;;18.50;92.10;;;;;;4965064;28;20041;-86
2023/10/13 12:48:56;;;;;;;19.73;9.52;;;18.30;92.10;;;;;;4997470;28;20482;-89
2023/10/13 12:51:50;;;;;;;19.08;9.52;;;18.20;92.70;;;;;;5008171;23;20558;-89
2023/10/13 12:55:29;;;;;;;;;;;;;;;;;;;;;
2023/10/13 12:58:26;;;;;;;18.10;8.43;;;18.30;92.80;;;;;;5031562;28;20094;-86
2023/10/13 13:01:20;;;;;;;19.17;9.15;;;18.20;93.10;;;;;;5041953;28;20048;-88
2023/10/13 13:04:12;;;;;;;19.92;9.27;;;18.20;93.10;;;;;;5043624;28;20161;-88
2023/10/13 13:06:53;;;;;;;21.88;9.82;;;18.20;93.50;;;;;;5050763;28;20116;-86
2023/10/13 13:09:45;;;;;;;22.27;8.77;;;18.10;93.50;;;;;;5036386;28;20139;-91
2023/10/13 13:12:14;;;;;;;19.23;9.52;;;18.00;93.60;;;;;;5101564;23;20063;-87
2023/10/13 13:14:47;;;;;;;28.48;9.63;;;18.10;93.60;;;;;;5041993;28;20044;-91
2023/10/13 13:17:16;;;;;;;17.25;7.70;;;18.10;93.90;;;;;;5040434;28;20127;-88
2023/10/13 13:19:59;;;;;;;20.15;9.25;;;18.10;93.70;;;;;;5040254;28;20044;-88
2023/10/13 13:22:25;;;;;;;22.55;10.25;;;18.10;93.50;;;;;;5043206;28;20036;-89
2023/10/13 13:25:02;;;;;;;25.90;8.68;;;18.00;93.70;;;;;;5058141;28;20106;-89
2023/10/13 13:27:33;;;;;;;20.25;9.90;;;18.00;93.50;;;;;;5057098;28;20043;-90
2023/10/13 13:29:59;;;;;;;18.45;8.13;;;18.10;93.60;;;;;;5039222;28;20131;-88
2023/10/13 13:32:24;;;;;;;19.10;7.88;;;18.20;93.40;;;;;;5055809;28;20521;-89
2023/10/13 13:35:06;;;;;;;19.23;8.70;;;18.20;93.40;;;;;;5039457;28;20043;-90
2023/10/13 13:37:32;;;;;;;20.55;8.68;;;18.30;93.20;;;;;;5041210;28;20542;-89
2023/10/13 13:40:18;;;;;;;21.67;9.02;;;18.30;93.20;;;;;;5055801;28;20037;-89
2023/10/13 13:43:04;;;;;;;33.83;9.98;;;18.30;93.10;;;;;;5055998;28;20044;-89
2023/10/13 13:45:41;;;;;;;22.25;9.27;;;18.40;93.20;;;;;;5055643;28;20093;-87
2023/10/13 13:48:07;;;;;;;18.00;7.90;;;18.40;92.90;;;;;;5072651;28;20090;-89
2023/10/13 13:50:41;;;;;;;20.60;8.60;;;18.50;92.80;;;;;;5055814;28;20040;-89
2023/10/13 13:53:09;;;;;;;21.80;8.27;;;18.50;92.30;;;;;;5055769;28;20044;-89
2023/10/13 13:55:35;;;;;;;30.83;9.13;;;18.60;92.50;;;;;;5042797;28;20040;-89
2023/10/13 13:58:25;;;;;;;28.00;9.43;;;18.70;92.30;;;;;;5059853;28;20089;-88
2023/10/13 14:01:15;;;;;;;17.98;7.82;;;18.60;92.20;;;;;;5028067;28;20039;-89
2023/10/13 14:03:51;;;;;;;26.40;9.27;;;18.70;92.00;;;;;;5061301;28;20039;-90
2023/10/13 14:06:26;;;;;;;22.20;8.18;;;18.70;92.10;;;;;;5055953;28;20040;-86
2023/10/13 14:09:32;;;;;;;25.85;9.52;;;18.70;92.00;;;;;;5024291;28;20473;-91
2023/10/13 14:14:58;;;;;;;22.90;8.90;;;18.70;92.00;;;;;;5045228;28;20095;-90
2023/10/13 14:17:30;;;;;;;24.60;9.20;;;18.70;92.00;;;;;;5040935;28;20045;-91
2023/10/13 14:20:24;;;;;;;23.35;8.43;;;18.70;91.90;;;;;;5040203;28;20476;-92
2023/10/13 14:22:48;;;;;;;22.65;8.70;;;18.80;91.70;;;;;;5071620;28;20037;-88
2023/10/13 14:25:14;;;;;;;19.10;7.38;;;18.80;91.60;;;;;;5055722;28;20503;-90
2023/10/13 14:27:41;;;;;;;23.77;8.32;;;18.90;91.30;;;;;;5056058;28;20055;-91
2023/10/13 14:30:07;;;;;;;22.15;9.05;;;18.90;91.00;;;;;;5056101;28;20045;-90
2023/10/13 14:32:40;;;;;;;19.35;8.10;;;18.90;91.00;;;;;;5056768;28;20087;-88
2023/10/13 14:35:14;;;;;;;21.35;8.98;;;18.90;90.90;;;;;;5056621;28;20065;-90
2023/10/13 14:37:40;;;;;;;19.25;8.25;;;19.00;90.80;;;;;;5055745;28;20127;-90
2023/10/13 14:40:12;;;;;;;20.42;8.10;;;19.00;90.50;;;;;;5072196;28;20488;-90
2023/10/13 14:42:40;;;;;;;21.70;8.35;;;19.00;90.70;;;;;;5039475;28;20056;-91
2023/10/13 14:45:12;;;;;;;24.83;8.55;;;19.00;90.60;;;;;;5039099;28;20033;-90
2023/10/13 14:47:42;;;;;;;23.50;8.38;;;19.00;90.70;;;;;;5046262;28;20040;-87
2023/10/13 14:50:14;;;;;;;26.77;9.80;;;19.10;90.70;;;;;;5052301;28;20072;-91
2023/10/13 14:52:40;;;;;;;30.92;10.35;;;19.10;91.00;;;;;;5079899;28;20035;-91
2023/10/13 14:55:18;;;;;;;20.77;7.47;;;19.00;91.10;;;;;;5044664;28;20036;-90
2023/10/13 14:57:49;;;;;;;26.35;9.43;;;19.10;91.20;;;;;;5048336;28;20032;-90
2023/10/13 15:00:24;;;;;;;23.33;9.18;;;19.10;91.30;;;;;;5060264;28;20072;-91
2023/10/13 15:03:01;;;;;;;32.85;10.90;;;19.00;91.40;;;;;;5043442;28;20127;-89
2023/10/13 15:05:29;;;;;;;25.77;9.30;;;19.00;91.70;;;;;;5058225;28;20049;-89
2023/10/13 15:07:55;;;;;;;23.23;9.35;;;19.00;91.90;;;;;;5058095;28;20053;-89
2023/10/13 15:10:25;;;;;;;28.25;10.48;;;19.00;91.60;;;;;;5060100;28;20040;-90
2023/10/13 15:12:51;;;;;;;26.90;9.40;;;19.00;91.70;;;;;;5059821;28;20134;-86
2023/10/13 15:15:19;;;;;;;32.60;10.85;;;19.00;91.70;;;;;;5043585;28;20045;-89
2023/10/13 15:17:45;;;;;;;32.90;10.82;;;19.00;91.70;;;;;;5043910;28;20047;-88
2023/10/13 15:20:17;;;;;;;26.13;8.10;;;19.00;91.70;;;;;;5060627;28;20040;-90
2023/10/13 15:22:49;;;;;;;33.80;11.23;;;19.00;91.50;;;;;;5061817;28;20392;-87
2023/10/13 15:25:27;;;;;;;34.58;10.07;;;19.00;91.40;;;;;;5044766;28;20123;-91
2023/10/13 15:27:55;;;;;;;25.45;9.15;;;19.00;91.40;;;;;;5066161;28;20049;-90
2023/10/13 15:30:30;;;;;;;35.17;9.00;;;19.00;91.50;;;;;;5032564;28;20047;-89
2023/10/13 15:32:57;;;;;;;28.75;10.50;;;19.10;91.30;;;;;;5049214;28;20044;-89
2023/10/13 15:35:28;;;;;;;30.17;9.27;;;19.00;91.30;;;;;;5032177;28;20128;-89
2023/10/13 15:38:01;;;;;;;34.92;10.20;;;19.00;91.30;;;;;;5065290;28;20032;-88
2023/10/13 15:40:27;;;;;;;29.42;8.82;;;19.00;91.10;;;;;;5032099;28;20038;-88
2023/10/13 15:42:59;;;;;;;27.30;8.68;;;19.10;91.20;;;;;;5024621;28;20148;-86
2023/10/13 15:45:32;;;;;;;26.27;8.95;;;19.00;91.20;;;;;;5030029;28;20036;-90
2023/10/13 15:47:58;;;;;;;23.50;8.87;;;19.00;91.30;;;;;;5034130;28;20048;-86
2023/10/13 15:50:24;;;;;;;25.55;8.57;;;19.00;91.40;;;;;;5048672;28;20044;-87
2023/10/13 15:56:17;;;;;;;26.42;8.20;;;19.00;91.60;;;;;;5039403;28;20045;-89
2023/10/13 15:58:47;;;;;;;27.13;8.20;;;19.00;91.60;;;;;;5047635;28;20051;-91
2023/10/13 16:01:16;;;;;;;25.13;7.80;;;19.00;91.70;;;;;;5044418;28;20040;-89
2023/10/13 16:03:52;;;;;;;25.95;9.35;;;19.00;91.90;;;;;;5040572;28;20131;-90
2023/10/13 16:06:18;;;;;;;22.02;8.23;;;18.90;91.90;;;;;;5027780;28;20033;-89
2023/10/13 16:09:26;;;;;;;23.35;7.05;;;18.90;92.10;;;;;;5042829;28;20098;-90
2023/10/13 16:11:58;;;;;;;25.38;8.10;;;18.90;92.20;;;;;;5071684;23;20125;-90
2023/10/13 16:18:32;;;;;;;24.67;6.75;;;18.80;92.10;;;;;;5038579;28;20043;-88
2023/10/13 16:21:07;;;;;;;21.65;6.57;;;18.70;92.10;;;;;;5014354;28;20497;-89
2023/10/13 16:23:38;;;;;;;19.75;7.57;;;18.60;92.40;;;;;;5015668;28;20135;-90
2023/10/13 16:26:08;;;;;;;20.17;6.72;;;18.50;92.40;;;;;;5018846;28;20045;-89
2023/10/13 16:28:35;;;;;;;20.40;7.03;;;18.50;92.40;;;;;;5020742;28;20075;-90
2023/10/13 16:31:08;;;;;;;21.70;6.07;;;18.50;92.30;;;;;;5004607;28;20045;-90
2023/10/13 16:33:40;;;;;;;14.52;5.53;;;18.50;92.20;;;;;;5020058;28;20041;-89
2023/10/13 16:36:13;;;;;;;18.38;5.68;;;18.40;92.40;;;;;;5005145;28;20037;-87
2023/10/13 16:38:45;;;;;;;21.95;6.75;;;18.30;92.60;;;;;;5020642;28;20033;-88
2023/10/13 16:41:15;;;;;;;15.57;4.95;;;18.30;92.70;;;;;;5005311;28;20060;-88
2023/10/13 16:43:50;;;;;;;17.55;5.60;;;18.40;92.70;;;;;;5021134;28;20127;-90
2023/10/13 16:46:17;;;;;;;14.52;5.10;;;18.30;92.90;;;;;;5020998;28;20067;-87
2023/10/13 16:48:48;;;;;;;18.17;5.68;;;18.30;93.00;;;;;;5003459;28;20114;-87